Scranton, PA

12:12 AM EDT en Septiembre 22, 2014 (GMT -0400)
Wilkes-Barre-Scranton International | Change Station
CLOSE
Current Station
Aeropuerto
Location: Avoca,
Altura: 961 ft
Estaciones meteorológicas cercanas

Alt 961 ft 41.33 °N, 75.72 °W | Updated 18 minutes ago

Nublado
Nublado
63 ° F
Sensación térmica 63 ° F
N
4
Viento Variable Viento desde Variable

Hoy
Alta -- | Baja -- ° F
--% Posibilidad de precipitaciones
Ayer
Alta -- | Baja -- ° F
Precip. -- pul
6:50 AM 6:59 PM
Creciente menguante, 4% visible
Presión 29.68 pul
Visibilidad 8.0 Millas
Nubes Baja 1600 ft
Nubes dispersas 4700 ft
Nublado 5500 ft
Punto de rocío 60 ° F
Humedad 90%
Precipitaciones 0.20 pul
Espesor de la nieve No disponible.
UV 0 de una escala de 12
Polen 2.00 de una escala de 12
Calidad del aire No disponible.
Flu Activity No disponible.
METAR KAVP 220354Z AUTO VRB03KT 8SM FEW016 SCT047 OVC055 17/16 A2970 RMK AO2 SLP050 T01720156

More Conditions Fewer Conditions

Presión 29.68 pul
Visibilidad 8.0 Millas
Nubes Baja 1600 ft
Nubes dispersas 4700 ft
Nublado 5500 ft
Punto de rocío 60 ° F
Humedad 90%
Precipitaciones 0.20 pul
Espesor de la nieve No disponible.
UV 0 de una escala de 12
Polen 2.00 de una escala de 12
Calidad del aire No disponible.
Flu Activity No disponible.
METAR KAVP 220354Z AUTO VRB03KT 8SM FEW016 SCT047 OVC055 17/16 A2970 RMK AO2 SLP050 T01720156

More Conditions Fewer Conditions

10-Day Weather Forecast

Almanac

Astronomía

Sep. 22, 2014 Salida Puesta
Hora real 6:50 AM EDT 6:59 PM EDT
Crepúsculo civil 6:22 AM EDT 7:27 PM EDT
Crepúsculo náutico 5:50 AM EDT 7:59 PM EDT
Crepúsculo astronómico 5:17 AM EDT 8:32 PM EDT
Luna 5:15 AM EDT 6:06 PM EDT
Horas de luz 13h 04m
Horas de luz
12h 09m
Tomorrow will be 2m 45s shorter.
Creciente menguante, 4% of the Moon is Illuminated
Hoy
Creciente menguante
Sep 24
Nueva
Oct 1
Cuarto creciente
Oct 8
Luna llena
Oct 15
Cuarto menguante

Extremos de ayer

Máximos del estado Bajos del estado

Community

WunderPhotos

Upload Photos

1,755,383 ¡fotos cargadas!

Nearby

Grosos de nieve

Estación Profundido Altura
No tenemos constancia de nieve nueva.

Actividad de terremotos

Ciudad Distance Mag. Tiempo y dato
No hay informes recientes de la actividad sísmica.
Magnitud mínima muestra es 2,5.

Temperaturas de aguas costeras

Lugar Temperatura
Sin partes meteorológicos de las estaciones

Estaciones meteorológicas cercanas